createdAt,value
2022-09-02T00:02:38.244Z,100084.09
2022-09-02T00:05:41.407Z,100093.03
2022-09-02T00:08:44.321Z,100080.44
2022-09-02T00:11:48.949Z,100081.66
2022-09-02T00:14:51.477Z,100075.00
2022-09-02T00:17:54.685Z,100071.88
2022-09-02T00:21:01.047Z,100071.03
2022-09-02T00:24:05.263Z,100067.16
2022-09-02T00:27:07.829Z,100068.88
2022-09-02T00:30:11.359Z,100068.88
2022-09-02T00:33:14.638Z,100066.31
2022-09-02T00:36:17.596Z,100073.84
2022-09-02T00:39:20.469Z,100068.78
2022-09-02T00:42:24.225Z,100068.03
2022-09-02T00:45:26.805Z,100063.81
2022-09-02T00:48:30.184Z,100056.84
2022-09-02T00:51:41.788Z,100065.91
2022-09-02T00:54:49.007Z,100060.78
2022-09-02T00:57:57.723Z,100068.84
2022-09-02T01:01:01.111Z,100060.16
2022-09-02T01:04:04.109Z,100064.31
2022-09-02T01:07:07.435Z,100069.28
2022-09-02T01:10:14.479Z,100064.06
2022-09-02T01:13:20.347Z,100066.81
2022-09-02T01:16:26.463Z,100072.19
2022-09-02T01:19:49.690Z,100069.91
2022-09-02T01:22:54.909Z,100065.94
2022-09-02T01:25:58.665Z,100065.06
2022-09-02T01:29:01.298Z,100061.34
2022-09-02T01:32:04.323Z,100066.72
2022-09-02T01:35:08.687Z,100065.88
2022-09-02T01:38:12.100Z,100063.19
2022-09-02T01:41:14.732Z,100062.12
2022-09-02T01:44:17.912Z,100055.91
2022-09-02T01:47:27.059Z,100060.31
2022-09-02T01:50:31.617Z,100060.59
2022-09-02T01:53:35.117Z,100062.75
2022-09-02T01:56:38.530Z,100062.88
2022-09-02T01:59:43.779Z,100056.88
2022-09-02T02:02:46.838Z,100056.06
2022-09-02T02:05:49.937Z,100059.56
2022-09-02T02:08:52.736Z,100051.72
2022-09-02T02:11:56.795Z,100052.84
2022-09-02T02:15:02.412Z,100049.31
2022-09-02T02:18:05.670Z,100049.56
2022-09-02T02:21:08.480Z,100046.91
2022-09-02T02:24:11.350Z,100048.50
2022-09-02T02:27:14.019Z,100050.97
2022-09-02T02:30:17.566Z,100048.69
2022-09-02T02:33:20.225Z,100044.09
2022-09-02T02:36:23.417Z,100048.16
2022-09-02T02:39:26.179Z,100041.09
2022-09-02T02:42:29.203Z,100038.59
2022-09-02T02:45:32.014Z,100032.69
2022-09-02T02:48:36.026Z,100040.72
2022-09-02T02:51:39.451Z,100041.47
2022-09-02T02:54:42.679Z,100038.16
2022-09-02T02:57:46.219Z,100031.78
2022-09-02T03:00:50.178Z,100030.22
2022-09-02T03:03:54.267Z,100028.31
2022-09-02T03:06:57.435Z,100036.47
2022-09-02T03:10:00.016Z,100034.66
2022-09-02T03:13:04.395Z,100035.12
2022-09-02T03:16:07.027Z,100035.97
2022-09-02T03:19:10.165Z,100028.28
2022-09-02T03:22:13.473Z,100038.16
2022-09-02T03:25:20.397Z,100029.28
2022-09-02T03:28:23.325Z,100025.16
2022-09-02T03:31:27.567Z,100028.00
2022-09-02T03:34:32.455Z,100031.78
2022-09-02T03:37:36.392Z,100025.78
2022-09-02T03:40:40.145Z,100033.47
2022-09-02T03:43:43.169Z,100032.91
2022-09-02T03:46:46.178Z,100033.66
2022-09-02T03:49:49.478Z,100031.62
2022-09-02T03:52:52.358Z,100028.56
2022-09-02T03:55:56.104Z,100038.62
2022-09-02T03:59:00.303Z,100041.50
2022-09-02T04:02:04.410Z,100038.00
2022-09-02T04:05:11.845Z,100040.31
2022-09-02T04:08:19.824Z,100031.91
2022-09-02T04:11:23.774Z,100038.19
2022-09-02T04:14:27.589Z,100036.91
2022-09-02T04:17:30.754Z,100035.41
2022-09-02T04:20:33.650Z,100032.47
2022-09-02T04:23:37.139Z,100030.25
2022-09-02T04:26:44.962Z,100037.72
2022-09-02T04:29:48.863Z,100041.50
2022-09-02T04:32:52.799Z,100049.63
2022-09-02T04:35:55.712Z,100043.63
2022-09-02T04:38:59.613Z,100039.56
2022-09-02T04:42:03.096Z,100044.34
2022-09-02T04:45:06.711Z,100045.75
2022-09-02T04:48:10.147Z,100048.69
2022-09-02T04:51:18.372Z,100050.19
2022-09-02T04:54:21.422Z,100044.84
2022-09-02T04:57:24.430Z,100048.34
2022-09-02T05:00:27.489Z,100049.47
2022-09-02T05:03:30.826Z,100050.13
2022-09-02T05:06:34.055Z,100063.31
2022-09-02T05:09:37.315Z,100054.28
2022-09-02T05:12:41.946Z,100062.75
2022-09-02T05:15:44.984Z,100057.22
2022-09-02T05:18:48.583Z,100056.56
2022-09-02T05:21:55.250Z,100054.34
2022-09-02T05:24:58.618Z,100058.97
2022-09-02T05:28:03.794Z,100065.06
2022-09-02T05:31:12.806Z,100058.81
2022-09-02T05:34:16.848Z,100062.00
2022-09-02T05:37:20.099Z,100066.88
2022-09-02T05:40:23.066Z,100064.50
2022-09-02T05:43:26.506Z,100058.00
2022-09-02T05:46:29.989Z,100063.75
2022-09-02T05:49:33.293Z,100058.91
2022-09-02T05:52:37.283Z,100050.66
2022-09-02T05:55:40.180Z,100050.84
2022-09-02T05:58:43.541Z,100044.28
2022-09-02T06:01:49.002Z,100050.97
2022-09-02T06:04:54.504Z,100050.16
2022-09-02T06:08:00.512Z,100047.28
2022-09-02T06:11:04.343Z,100063.66
2022-09-02T06:14:08.089Z,100052.66
2022-09-02T06:17:11.347Z,100055.59
2022-09-02T06:20:14.546Z,100062.75
2022-09-02T06:23:18.376Z,100061.22
2022-09-02T06:26:21.615Z,100062.00
2022-09-02T06:29:26.431Z,100057.69
2022-09-02T06:32:29.331Z,100063.78
2022-09-02T06:35:38.067Z,100067.53
2022-09-02T06:38:45.981Z,100060.31
2022-09-02T06:41:49.451Z,100060.19
2022-09-02T06:44:52.459Z,100061.37
2022-09-02T06:47:56.551Z,100054.69
2022-09-02T06:50:59.367Z,100062.59
2022-09-02T06:54:04.286Z,100066.41
2022-09-02T06:57:07.025Z,100057.59
2022-09-02T07:00:11.354Z,100062.97
2022-09-02T07:03:52.454Z,100059.09
2022-09-02T07:06:56.466Z,100054.56
2022-09-02T07:10:01.214Z,100063.53
2022-09-02T07:13:04.316Z,100063.53
2022-09-02T07:16:07.823Z,100060.91
2022-09-02T07:19:15.033Z,100056.84
2022-09-02T07:22:19.093Z,100060.81
2022-09-02T07:25:22.523Z,100057.91
2022-09-02T07:28:27.529Z,100064.75
2022-09-02T07:31:30.611Z,100061.25
2022-09-02T07:34:33.550Z,100056.31
2022-09-02T07:37:37.309Z,100066.88
2022-09-02T07:40:42.378Z,100068.34
2022-09-02T07:43:49.613Z,100060.91
2022-09-02T07:46:54.751Z,100055.16
2022-09-02T07:53:22.557Z,100061.97
2022-09-02T07:56:26.232Z,100062.81
2022-09-02T07:59:29.238Z,100057.63
2022-09-02T08:02:34.690Z,100053.84
2022-09-02T08:05:38.746Z,100061.50
2022-09-02T08:08:43.026Z,100062.31
2022-09-02T08:11:48.452Z,100046.16
2022-09-02T08:14:51.072Z,100063.53
2022-09-02T08:17:53.913Z,100059.19
2022-09-02T08:20:56.550Z,100067.03
2022-09-02T08:24:00.437Z,100058.31
2022-09-02T08:27:03.139Z,100053.72
2022-09-02T08:30:09.939Z,100056.38
2022-09-02T08:33:12.543Z,100056.91
2022-09-02T08:36:15.482Z,100051.91
2022-09-02T08:39:18.067Z,100045.69
2022-09-02T08:42:33.785Z,100048.56
2022-09-02T08:45:40.383Z,100048.19
2022-09-02T08:49:03.063Z,100056.59
2022-09-02T08:52:06.283Z,100050.59
2022-09-02T08:55:46.239Z,100040.16
2022-09-02T08:58:56.903Z,100052.94
2022-09-02T09:02:33.174Z,100046.19
2022-09-02T09:05:44.218Z,100043.84
2022-09-02T09:08:49.288Z,100046.47
2022-09-02T09:12:26.092Z,100044.75
2022-09-02T09:16:00.893Z,100038.41
2022-09-02T09:19:13.073Z,100041.66
2022-09-02T09:22:19.361Z,100038.47
2022-09-02T09:25:29.797Z,100040.19
2022-09-02T09:28:38.745Z,100035.03
2022-09-02T09:31:42.064Z,100038.03
2022-09-02T09:34:54.188Z,100025.94
2022-09-02T09:37:57.030Z,100039.97
2022-09-02T09:41:26.117Z,100039.91
2022-09-02T09:44:40.970Z,100036.28
2022-09-02T09:47:43.797Z,100034.34
2022-09-02T09:50:56.633Z,100027.28
2022-09-02T09:54:19.705Z,100031.72
2022-09-02T09:57:23.145Z,100027.75
2022-09-02T10:00:32.160Z,100024.41
2022-09-02T10:03:35.328Z,100022.22
2022-09-02T10:06:43.272Z,100016.56
2022-09-02T10:09:46.282Z,100017.50
2022-09-02T10:12:51.379Z,100016.56
2022-09-02T10:16:36.432Z,100015.84
2022-09-02T10:19:51.480Z,100025.28
2022-09-02T10:23:11.603Z,100021.53
2022-09-02T10:26:46.604Z,100018.34
2022-09-02T10:29:55.084Z,100023.94
2022-09-02T10:33:26.089Z,100013.16
2022-09-02T10:36:41.457Z,100013.19
2022-09-02T10:40:10.434Z,100023.44
2022-09-02T10:43:37.681Z,100017.22
2022-09-02T10:47:04.831Z,100017.84
2022-09-02T10:50:23.521Z,100021.50
2022-09-02T10:53:31.887Z,100018.88
2022-09-02T10:57:02.966Z,100017.03
2022-09-02T11:00:18.035Z,100019.16
2022-09-02T11:03:43.006Z,100019.81
2022-09-02T11:07:03.633Z,100019.34
2022-09-02T11:10:20.116Z,100016.16
2022-09-02T11:13:35.998Z,100018.38
2022-09-02T11:16:55.743Z,100011.88
2022-09-02T11:20:30.470Z,100015.75
2022-09-02T11:23:45.242Z,100004.66
2022-09-02T11:27:42.018Z,100005.69
2022-09-02T11:30:58.841Z,100006.91
2022-09-02T11:34:43.531Z,99997.00
2022-09-02T11:37:50.098Z,99998.66
2022-09-02T11:41:37.221Z,99998.12
2022-09-02T11:44:52.383Z,99998.22
2022-09-02T11:48:10.811Z,99985.47
2022-09-02T11:51:34.599Z,99991.56
2022-09-02T11:54:42.145Z,99989.00
2022-09-02T11:57:53.917Z,99976.09
2022-09-02T12:01:24.910Z,99980.75
2022-09-02T12:07:51.507Z,99976.06
2022-09-02T12:11:00.106Z,99976.97
2022-09-02T12:14:04.563Z,99986.03
2022-09-02T12:17:09.662Z,99968.28
2022-09-02T12:20:41.528Z,99969.97
2022-09-02T12:23:51.262Z,99974.28
2022-09-02T12:26:55.960Z,99966.84
2022-09-02T12:29:59.080Z,99963.97
2022-09-02T12:33:13.475Z,99966.88
2022-09-02T12:36:41.460Z,99956.81
2022-09-02T12:39:43.890Z,99960.50
2022-09-02T12:42:48.379Z,99957.38
2022-09-02T12:45:51.229Z,99960.50
2022-09-02T12:49:25.145Z,99953.50
2022-09-02T12:52:44.914Z,99959.28
2022-09-02T12:56:13.592Z,99947.06
2022-09-02T12:59:46.374Z,99953.50
2022-09-02T13:03:07.040Z,99943.69
2022-09-02T13:06:21.955Z,99938.94
2022-09-02T13:10:06.406Z,99946.19
2022-09-02T13:13:33.539Z,99942.22
2022-09-02T13:16:40.041Z,99932.56
2022-09-02T13:20:01.365Z,99933.00
2022-09-02T13:23:31.314Z,99930.13
2022-09-02T13:26:56.140Z,99930.78
2022-09-02T13:30:08.281Z,99929.62
2022-09-02T13:33:14.193Z,99924.34
2022-09-02T13:36:44.435Z,99924.25
2022-09-02T13:39:47.531Z,99925.91
2022-09-02T13:42:52.822Z,99926.00
2022-09-02T13:46:00.196Z,99919.84
2022-09-02T13:49:03.101Z,99922.97
2022-09-02T13:52:08.028Z,99925.37
2022-09-02T13:55:14.851Z,99914.00
2022-09-02T13:58:24.060Z,99915.97
2022-09-02T14:01:31.481Z,99913.06
2022-09-02T14:04:36.359Z,99907.19
2022-09-02T14:07:42.178Z,99899.31
2022-09-02T14:10:46.029Z,99901.53
2022-09-02T14:13:49.915Z,99906.06
2022-09-02T14:16:53.024Z,99903.16
2022-09-02T14:20:23.683Z,99907.72
2022-09-02T14:23:28.980Z,99908.13
2022-09-02T14:26:38.836Z,99910.28
2022-09-02T14:29:44.471Z,99911.06
2022-09-02T14:32:47.012Z,99914.66
2022-09-02T14:36:17.905Z,99914.88
2022-09-02T14:39:20.879Z,99925.75
2022-09-02T14:42:28.398Z,99922.38
2022-09-02T14:45:33.854Z,99930.88
2022-09-02T14:48:39.901Z,99926.00
2022-09-02T14:51:50.705Z,99928.66
2022-09-02T14:54:55.377Z,99933.53
2022-09-02T14:58:02.659Z,99937.47
2022-09-02T15:01:08.487Z,99933.28
2022-09-02T15:04:11.297Z,99939.37
2022-09-02T15:07:17.861Z,99941.22
2022-09-02T15:10:20.944Z,99935.13
2022-09-02T15:13:33.776Z,99949.81
2022-09-02T15:16:36.302Z,99948.72
2022-09-02T15:19:39.135Z,99949.59
2022-09-02T15:22:42.929Z,99948.81
2022-09-02T15:25:46.009Z,99961.91
2022-09-02T15:28:49.122Z,99955.09
2022-09-02T15:31:53.118Z,99957.00
2022-09-02T15:34:55.690Z,99951.66
2022-09-02T15:37:58.638Z,99954.25
2022-09-02T15:41:21.872Z,99963.78
2022-09-02T15:44:26.929Z,99964.03
2022-09-02T15:47:30.598Z,99962.25
2022-09-02T15:50:34.325Z,99966.59
2022-09-02T15:53:36.916Z,99971.88
2022-09-02T15:56:41.934Z,99974.69
2022-09-02T15:59:44.516Z,99974.62
2022-09-02T16:02:47.606Z,99975.69
2022-09-02T16:05:50.499Z,99976.91
2022-09-02T16:08:53.101Z,99969.19
2022-09-02T16:11:58.138Z,99970.56
2022-09-02T16:15:00.748Z,99977.25
2022-09-02T16:18:03.682Z,99973.22
2022-09-02T16:21:07.888Z,99980.28
2022-09-02T16:24:10.810Z,99976.75
2022-09-02T16:27:13.425Z,99982.16
2022-09-02T16:30:16.359Z,99977.66
2022-09-02T16:33:19.953Z,99989.28
2022-09-02T16:36:24.502Z,99985.75
2022-09-02T16:39:29.440Z,99987.63
2022-09-02T16:42:37.432Z,99980.56
2022-09-02T16:45:40.759Z,99985.53
2022-09-02T16:48:43.782Z,99990.84
2022-09-02T16:51:57.851Z,99994.59
2022-09-02T16:55:01.251Z,99992.09
2022-09-02T16:58:03.918Z,99992.00
2022-09-02T17:01:08.317Z,99991.03
2022-09-02T17:04:10.851Z,99987.34
2022-09-02T17:07:14.139Z,99991.91
2022-09-02T17:10:17.783Z,99997.16
2022-09-02T17:13:20.749Z,99993.25
2022-09-02T17:16:25.719Z,99988.94
2022-09-02T17:19:32.470Z,99997.94
2022-09-02T17:22:35.212Z,99997.62
2022-09-02T17:25:37.969Z,99999.06
2022-09-02T17:28:46.634Z,99999.50
2022-09-02T17:31:49.444Z,99992.28
2022-09-02T17:34:52.073Z,99996.31
2022-09-02T17:37:54.892Z,99999.41
2022-09-02T17:41:16.508Z,100004.84
2022-09-02T17:44:19.438Z,100006.09
2022-09-02T17:47:22.727Z,100006.37
2022-09-02T17:50:25.587Z,100003.50
2022-09-02T17:53:28.539Z,100007.91
2022-09-02T17:56:40.661Z,100015.00
2022-09-02T18:00:12.426Z,100008.41
2022-09-02T18:03:22.271Z,100012.78
2022-09-02T18:06:31.089Z,100013.66
2022-09-02T18:09:35.358Z,100011.00
2022-09-02T18:12:37.935Z,100021.78
2022-09-02T18:16:03.508Z,100029.28
2022-09-02T18:19:32.435Z,100028.88
2022-09-02T18:22:53.057Z,100028.47
2022-09-02T18:26:14.242Z,100030.59
2022-09-02T18:29:32.339Z,100035.34
2022-09-02T18:33:08.795Z,100034.13
2022-09-02T18:36:17.508Z,100028.53
2022-09-02T18:39:35.217Z,100026.25
2022-09-02T18:42:56.405Z,100034.56
2022-09-02T18:46:01.156Z,100032.72
2022-09-02T18:49:04.631Z,100038.97
2022-09-02T18:52:10.488Z,100044.56
2022-09-02T18:55:16.615Z,100040.59
2022-09-02T18:58:47.474Z,100035.62
2022-09-02T19:01:56.378Z,100040.00
2022-09-02T19:05:01.504Z,100038.34
2022-09-02T19:08:29.977Z,100044.16
2022-09-02T19:11:34.008Z,100044.37
2022-09-02T19:14:39.147Z,100043.09
2022-09-02T19:17:42.025Z,100037.09
2022-09-02T19:20:44.924Z,100039.34
2022-09-02T19:23:48.225Z,100042.88
2022-09-02T19:26:53.589Z,100045.97
2022-09-02T19:30:01.873Z,100045.34
2022-09-02T19:33:09.741Z,100037.47
2022-09-02T19:36:12.460Z,100042.00
2022-09-02T19:39:16.041Z,100046.34
2022-09-02T19:42:24.312Z,100043.22
2022-09-02T19:45:29.340Z,100045.50
2022-09-02T19:48:32.135Z,100044.66
2022-09-02T19:51:35.017Z,100042.53
2022-09-02T19:54:37.672Z,100039.44
2022-09-02T19:57:41.550Z,100043.97
2022-09-02T20:00:44.830Z,100049.31
2022-09-02T20:03:47.727Z,100058.41
2022-09-02T20:06:51.116Z,100055.06
2022-09-02T20:09:54.499Z,100056.00
2022-09-02T20:12:58.805Z,100054.31
2022-09-02T20:16:03.407Z,100060.47
2022-09-02T20:19:06.331Z,100060.25
2022-09-02T20:22:13.537Z,100052.59
2022-09-02T20:25:16.518Z,100063.47
2022-09-02T20:28:25.192Z,100073.94
2022-09-02T20:31:36.939Z,100064.66
2022-09-02T20:34:50.006Z,100069.78
2022-09-02T20:38:17.918Z,100073.50
2022-09-02T20:41:29.251Z,100068.53
2022-09-02T20:44:37.939Z,100065.16
2022-09-02T20:48:01.166Z,100069.06
2022-09-02T20:51:36.128Z,100062.69
2022-09-02T20:54:48.648Z,100067.59
2022-09-02T20:58:19.472Z,100069.81
2022-09-02T21:01:26.024Z,100069.38
2022-09-02T21:04:35.221Z,100063.78
2022-09-02T21:07:45.629Z,100064.41
2022-09-02T21:10:52.203Z,100074.47
2022-09-02T21:14:08.280Z,100074.03
2022-09-02T21:17:16.767Z,100068.59
2022-09-02T21:20:38.482Z,100066.31
2022-09-02T21:23:49.203Z,100071.75
2022-09-02T21:26:56.792Z,100070.66
2022-09-02T21:30:12.170Z,100073.34
2022-09-02T21:33:16.960Z,100072.91
2022-09-02T21:36:25.546Z,100058.78
2022-09-02T21:39:31.539Z,100064.75
2022-09-02T21:43:24.998Z,100068.44
2022-09-02T21:46:42.782Z,100058.84
2022-09-02T21:50:09.286Z,100064.59
2022-09-02T21:53:12.655Z,100070.72
2022-09-02T21:56:40.845Z,100068.22
2022-09-02T22:00:13.033Z,100071.66
2022-09-02T22:03:40.193Z,100073.88
2022-09-02T22:06:46.023Z,100074.00
2022-09-02T22:10:05.959Z,100071.78
2022-09-02T22:13:09.121Z,100066.81
2022-09-02T22:16:13.480Z,100072.91
2022-09-02T22:19:17.336Z,100072.47
2022-09-02T22:22:24.524Z,100067.84
2022-09-02T22:25:27.556Z,100066.94
2022-09-02T22:28:37.855Z,100066.28
2022-09-02T22:31:42.732Z,100070.97
2022-09-02T22:35:25.185Z,100069.66
2022-09-02T22:38:46.333Z,100067.53
2022-09-02T22:41:56.210Z,100068.75
2022-09-02T22:45:41.323Z,100061.09
2022-09-02T22:49:26.413Z,100059.44
2022-09-02T22:52:47.289Z,100059.34
2022-09-02T22:55:59.463Z,100063.22
2022-09-02T22:59:24.234Z,100051.22
2022-09-02T23:02:39.247Z,100063.97
2022-09-02T23:06:01.203Z,100057.28
2022-09-02T23:09:08.840Z,100048.50
2022-09-02T23:12:14.628Z,100048.88
2022-09-02T23:15:24.793Z,100045.47
2022-09-02T23:19:13.022Z,100043.34
2022-09-02T23:22:20.762Z,100047.31
2022-09-02T23:25:50.213Z,100057.19
2022-09-02T23:29:24.265Z,100043.34
2022-09-02T23:32:43.616Z,100044.22
2022-09-02T23:35:56.266Z,100040.72
2022-09-02T23:39:18.936Z,100046.44
2022-09-02T23:42:22.123Z,100039.31
2022-09-02T23:45:30.319Z,100040.50
2022-09-02T23:48:44.508Z,100040.50
2022-09-02T23:51:53.595Z,100036.34
2022-09-02T23:55:04.332Z,100038.56
2022-09-02T23:58:31.160Z,100043.25
